首页
METAR-TAF:

METAR-TAF

机场 :

乔莫·肯雅塔国际机场

奈洛比, 肯尼亚

纬度: 01-19S, 经度: 036-55E, 海拔: 1624米

当前天气观测

该预报发布于56分钟前的02:00 UTC
风速4节,风向北转东北
温度 13°C
湿度 88%
气压 1023 hPa
能见度10公里或以上
1500米以下无云,无积雨云

METAR: HKJK 140200Z 03004KT CAVOK 13/11 Q1023 NOSIG

时间: 05:56 (02:56 UTC)

预报

该预报发布于3小时和56分钟前的23:00 UTC
预报有效从14日的 00点(UTC)到 15日的 06点(UTC)
风速3节,风向多变
能见度10公里或以上
散云层高于1800英尺
成为
从 14日的 01点(UTC)到 14日的 04点(UTC)
多云层高于1500英尺
成为
从 14日的 08点(UTC)到 14日的 11点(UTC)
风速10节,风向南转南东
多云层高于2500英尺
成为
从 14日的 20点(UTC)到 14日的 23点(UTC)
风速3节,风向多变
少量云层高于1800英尺
成为
从 15日的 01点(UTC)到 15日的 04点(UTC)
多云层高于1500英尺

TAF: HKJK 132300Z 1400/1506 VRB03KT 9999 SCT018 BECMG 1401/1404 BKN015 BECMG 1408/1411 16010KT BKN025 BECMG 1420/1423 VRB03KT FEW018 BECMG 1501/1504 BKN015

超过4000个机场的气象观测和天气预报(METAR&TAF报告)。

可查询的气象台以黄色和红色小点在地图上表示。

将鼠标移到小点上方,可查看气象台名称。

然后点击查看天气观测和预报。

如需切换地图:点击带黑十字的绿色按钮放大地图;点击带横线的绿色按钮缩小地图;或者点击绿色箭头查看邻近地区的地图。


METAR-TAF: